createdAt,value
2017-09-01T00:00:42.188Z,95509.41
2017-09-01T00:03:09.706Z,95503.37
2017-09-01T00:05:37.347Z,95503.34
2017-09-01T00:08:04.914Z,95504.32
2017-09-01T00:10:32.668Z,95497.71
2017-09-01T00:13:00.188Z,95493.22
2017-09-01T00:15:27.972Z,95494.41
2017-09-01T00:17:55.515Z,95493.60
2017-09-01T00:20:23.303Z,95497.42
2017-09-01T00:22:50.856Z,95485.47
2017-09-01T00:25:18.378Z,95489.21
2017-09-01T00:27:45.922Z,95487.05
2017-09-01T00:30:13.592Z,95496.81
2017-09-01T00:32:41.127Z,95498.52
2017-09-01T00:35:08.683Z,95495.78
2017-09-01T00:37:36.261Z,95500.73
2017-09-01T00:40:03.826Z,95500.13
2017-09-01T00:42:31.374Z,95498.34
2017-09-01T00:44:58.941Z,95497.09
2017-09-01T00:47:26.460Z,95501.19
2017-09-01T00:49:54.000Z,95506.05
2017-09-01T00:52:21.589Z,95498.52
2017-09-01T00:54:49.921Z,95500.97
2017-09-01T00:57:22.494Z,95502.13
2017-09-01T00:59:50.055Z,95494.06
2017-09-01T01:02:17.930Z,95502.23
2017-09-01T01:04:45.444Z,95494.59
2017-09-01T01:07:12.962Z,95494.81
2017-09-01T01:09:40.525Z,95488.52
2017-09-01T01:12:08.050Z,95487.23
2017-09-01T01:14:35.574Z,95490.63
2017-09-01T01:17:03.195Z,95486.67
2017-09-01T01:19:30.857Z,95489.05
2017-09-01T01:21:58.437Z,95490.98
2017-09-01T01:24:25.980Z,95487.27
2017-09-01T01:26:53.546Z,95487.36
2017-09-01T01:29:21.074Z,95487.81
2017-09-01T01:31:48.614Z,95485.47
2017-09-01T01:34:16.188Z,95484.09
2017-09-01T01:36:43.791Z,95489.22
2017-09-01T01:39:11.365Z,95493.27
2017-09-01T01:41:38.895Z,95488.46
2017-09-01T01:44:06.418Z,95499.39
2017-09-01T01:46:33.996Z,95495.23
2017-09-01T01:49:01.554Z,95494.61
2017-09-01T01:51:29.097Z,95495.06
2017-09-01T01:53:56.711Z,95494.09
2017-09-01T01:56:24.721Z,95488.01
2017-09-01T01:58:52.510Z,95492.69
2017-09-01T02:01:20.112Z,95485.48
2017-09-01T02:03:47.624Z,95485.44
2017-09-01T02:06:15.181Z,95489.70
2017-09-01T02:08:43.077Z,95482.27
2017-09-01T02:11:11.644Z,95481.39
2017-09-01T02:13:39.181Z,95480.59
2017-09-01T02:16:06.732Z,95473.40
2017-09-01T02:18:35.116Z,95478.09
2017-09-01T02:21:02.696Z,95477.16
2017-09-01T02:23:31.099Z,95473.81
2017-09-01T02:25:58.873Z,95475.66
2017-09-01T02:28:26.437Z,95480.16
2017-09-01T02:30:54.278Z,95470.48
2017-09-01T02:33:21.827Z,95472.02
2017-09-01T02:35:49.370Z,95476.06
2017-09-01T02:38:16.989Z,95462.69
2017-09-01T02:40:44.541Z,95464.22
2017-09-01T02:43:12.076Z,95462.31
2017-09-01T02:45:39.662Z,95462.61
2017-09-01T02:48:07.550Z,95453.75
2017-09-01T02:50:35.941Z,95458.52
2017-09-01T02:53:03.585Z,95454.59
2017-09-01T02:55:31.393Z,95448.52
2017-09-01T02:57:58.984Z,95461.45
2017-09-01T03:00:26.586Z,95458.86
2017-09-01T03:02:54.129Z,95468.87
2017-09-01T03:05:21.688Z,95462.92
2017-09-01T03:07:49.627Z,95464.41
2017-09-01T03:10:17.218Z,95465.24
2017-09-01T03:12:44.768Z,95448.42
2017-09-01T03:15:12.389Z,95466.86
2017-09-01T03:17:39.967Z,95459.11
2017-09-01T03:20:07.521Z,95465.02
2017-09-01T03:22:35.115Z,95466.39
2017-09-01T03:25:02.729Z,95474.34
2017-09-01T03:27:30.617Z,95477.32
2017-09-01T03:29:58.195Z,95470.34
2017-09-01T03:32:25.801Z,95474.63
2017-09-01T03:34:53.342Z,95470.45
2017-09-01T03:37:21.171Z,95473.52
2017-09-01T03:39:48.740Z,95468.09
2017-09-01T03:42:16.277Z,95470.33
2017-09-01T03:44:44.132Z,95469.88
2017-09-01T03:47:11.698Z,95477.28
2017-09-01T03:49:39.218Z,95474.06
2017-09-01T03:52:06.755Z,95473.08
2017-09-01T03:54:34.324Z,95475.45
2017-09-01T03:57:01.833Z,95475.27
2017-09-01T03:59:29.718Z,95480.55
2017-09-01T04:01:57.320Z,95482.80
2017-09-01T04:04:24.903Z,95483.50
2017-09-01T04:06:52.425Z,95478.36
2017-09-01T04:09:20.013Z,95482.00
2017-09-01T04:11:47.595Z,95477.10
2017-09-01T04:14:15.151Z,95482.23
2017-09-01T04:16:42.781Z,95485.39
2017-09-01T04:19:10.312Z,95477.32
2017-09-01T04:21:37.834Z,95480.65
2017-09-01T04:24:05.435Z,95469.25
2017-09-01T04:26:33.079Z,95472.41
2017-09-01T04:29:00.668Z,95473.48
2017-09-01T04:31:28.320Z,95462.36
2017-09-01T04:33:55.876Z,95475.16
2017-09-01T04:36:23.678Z,95472.98
2017-09-01T04:38:51.311Z,95466.67
2017-09-01T04:41:19.095Z,95473.21
2017-09-01T04:43:46.887Z,95470.22
2017-09-01T04:46:14.496Z,95476.25
2017-09-01T04:48:42.313Z,95480.77
2017-09-01T04:51:10.107Z,95479.94
2017-09-01T04:53:37.779Z,95481.00
2017-09-01T04:56:05.413Z,95477.11
2017-09-01T04:58:33.818Z,95471.04
2017-09-01T05:01:01.844Z,95466.55
2017-09-01T05:03:29.689Z,95468.20
2017-09-01T05:05:57.296Z,95477.06
2017-09-01T05:08:24.920Z,95467.25
2017-09-01T05:10:52.549Z,95472.72
2017-09-01T05:13:20.180Z,95471.77
2017-09-01T05:15:47.840Z,95460.40
2017-09-01T05:18:15.453Z,95467.30
2017-09-01T05:20:43.067Z,95470.52
2017-09-01T05:23:10.685Z,95473.95
2017-09-01T05:25:38.301Z,95469.84
2017-09-01T05:28:06.718Z,95464.72
2017-09-01T05:30:34.333Z,95463.00
2017-09-01T05:33:01.914Z,95465.75
2017-09-01T05:35:29.853Z,95461.84
2017-09-01T05:37:57.670Z,95456.09
2017-09-01T05:40:25.273Z,95456.17
2017-09-01T05:42:52.830Z,95450.42
2017-09-01T05:45:20.506Z,95457.88
2017-09-01T05:47:48.038Z,95445.22
2017-09-01T05:50:15.605Z,95456.56
2017-09-01T05:52:43.225Z,95448.06
2017-09-01T05:55:11.125Z,95450.08
2017-09-01T05:57:39.101Z,95450.23
2017-09-01T06:00:08.115Z,95450.72
2017-09-01T06:02:35.705Z,95450.77
2017-09-01T06:05:03.275Z,95449.13
2017-09-01T06:07:30.884Z,95442.90
2017-09-01T06:09:59.176Z,95446.02
2017-09-01T06:12:26.763Z,95439.00
2017-09-01T06:14:54.377Z,95446.20
2017-09-01T06:17:22.172Z,95440.71
2017-09-01T06:19:49.814Z,95439.71
2017-09-01T06:22:17.439Z,95441.02
2017-09-01T06:24:45.014Z,95442.21
2017-09-01T06:27:12.681Z,95443.87
2017-09-01T06:29:40.382Z,95433.27
2017-09-01T06:32:08.191Z,95434.77
2017-09-01T06:34:35.840Z,95438.11
2017-09-01T06:37:03.632Z,95431.89
2017-09-01T06:39:31.435Z,95431.09
2017-09-01T06:41:58.968Z,95432.88
2017-09-01T06:44:26.751Z,95434.66
2017-09-01T06:46:54.336Z,95426.38
2017-09-01T06:49:21.899Z,95433.34
2017-09-01T06:51:49.636Z,95435.57
2017-09-01T06:54:17.242Z,95433.74
2017-09-01T06:56:44.771Z,95429.23
2017-09-01T06:59:12.524Z,95427.30
2017-09-01T07:01:40.131Z,95425.08
2017-09-01T07:04:07.688Z,95421.02
2017-09-01T07:06:35.232Z,95422.30
2017-09-01T07:09:02.811Z,95423.67
2017-09-01T07:11:30.769Z,95421.53
2017-09-01T07:13:58.520Z,95426.33
2017-09-01T07:16:26.069Z,95416.41
2017-09-01T07:18:53.584Z,95417.61
2017-09-01T07:21:21.119Z,95423.28
2017-09-01T07:23:48.715Z,95423.38
2017-09-01T07:26:18.476Z,95423.80
2017-09-01T07:28:46.139Z,95421.92
2017-09-01T07:31:14.056Z,95412.08
2017-09-01T07:33:41.596Z,95404.92
2017-09-01T07:36:09.177Z,95410.93
2017-09-01T07:38:36.763Z,95409.11
2017-09-01T07:41:04.382Z,95410.94
2017-09-01T07:43:32.048Z,95410.05
2017-09-01T07:45:59.624Z,95403.09
2017-09-01T07:48:27.167Z,95404.48
2017-09-01T07:50:54.694Z,95403.67
2017-09-01T07:53:22.294Z,95396.47
2017-09-01T07:55:49.839Z,95399.06
2017-09-01T07:58:17.392Z,95398.28
2017-09-01T08:00:45.280Z,95391.66
2017-09-01T08:03:12.793Z,95390.14
2017-09-01T08:05:41.292Z,95389.44
2017-09-01T08:08:08.907Z,95387.22
2017-09-01T08:10:36.514Z,95388.97
2017-09-01T08:13:04.161Z,95381.94
2017-09-01T08:15:32.892Z,95381.87
2017-09-01T08:18:00.677Z,95376.48
2017-09-01T08:20:28.311Z,95377.11
2017-09-01T08:22:55.932Z,95375.63
2017-09-01T08:25:23.479Z,95376.10
2017-09-01T08:27:51.067Z,95375.20
2017-09-01T08:30:18.652Z,95374.47
2017-09-01T08:32:46.993Z,95366.48
2017-09-01T08:35:14.576Z,95367.69
2017-09-01T08:37:43.088Z,95361.05
2017-09-01T08:40:10.901Z,95357.41
2017-09-01T08:42:38.487Z,95344.18
2017-09-01T08:45:06.158Z,95345.89
2017-09-01T08:47:33.746Z,95349.64
2017-09-01T08:50:01.339Z,95343.56
2017-09-01T08:52:28.953Z,95340.78
2017-09-01T08:54:56.517Z,95344.02
2017-09-01T08:57:24.180Z,95339.24
2017-09-01T08:59:51.727Z,95338.66
2017-09-01T09:02:19.317Z,95328.05
2017-09-01T09:04:47.158Z,95322.09
2017-09-01T09:07:15.003Z,95325.03
2017-09-01T09:09:42.643Z,95321.31
2017-09-01T09:12:10.344Z,95322.97
2017-09-01T09:14:38.106Z,95313.60
2017-09-01T09:17:06.031Z,95317.92
2017-09-01T09:19:34.532Z,95306.33
2017-09-01T09:22:02.399Z,95310.30
2017-09-01T09:24:30.021Z,95304.69
2017-09-01T09:26:57.562Z,95292.91
2017-09-01T09:29:25.768Z,95296.08
2017-09-01T09:31:53.373Z,95294.97
2017-09-01T09:34:21.220Z,95274.81
2017-09-01T09:36:49.230Z,95277.27
2017-09-01T09:39:16.860Z,95274.55
2017-09-01T09:41:44.492Z,95267.86
2017-09-01T09:44:12.021Z,95269.16
2017-09-01T09:46:39.834Z,95260.81
2017-09-01T09:49:07.401Z,95266.27
2017-09-01T09:51:34.917Z,95266.73
2017-09-01T09:54:03.547Z,95260.46
2017-09-01T09:56:31.349Z,95264.38
2017-09-01T09:58:58.871Z,95248.67
2017-09-01T10:01:27.376Z,95248.34
2017-09-01T10:03:55.238Z,95245.02
2017-09-01T10:06:22.927Z,95244.86
2017-09-01T10:08:50.568Z,95230.52
2017-09-01T10:11:18.815Z,95226.23
2017-09-01T10:13:46.436Z,95228.58
2017-09-01T10:16:14.052Z,95221.22
2017-09-01T10:18:41.656Z,95214.81
2017-09-01T10:21:09.260Z,95215.13
2017-09-01T10:23:36.846Z,95210.27
2017-09-01T10:26:04.435Z,95206.08
2017-09-01T10:28:32.226Z,95195.95
2017-09-01T10:31:00.939Z,95199.37
2017-09-01T10:33:29.304Z,95190.29
2017-09-01T10:35:58.347Z,95185.35
2017-09-01T10:38:25.984Z,95187.75
2017-09-01T10:40:53.677Z,95185.07
2017-09-01T10:43:21.967Z,95188.59
2017-09-01T10:45:52.031Z,95181.88
2017-09-01T10:48:31.907Z,95179.37
2017-09-01T10:51:11.615Z,95171.58
2017-09-01T10:53:50.871Z,95169.81
2017-09-01T10:56:30.995Z,95160.84
2017-09-01T10:58:58.579Z,95161.54
2017-09-01T11:01:26.153Z,95154.58
2017-09-01T11:03:53.940Z,95149.20
2017-09-01T11:06:21.731Z,95136.61
2017-09-01T11:08:49.347Z,95139.40
2017-09-01T11:11:16.904Z,95140.64
2017-09-01T11:13:44.605Z,95140.69
2017-09-01T11:16:12.193Z,95140.49
2017-09-01T11:18:45.245Z,95133.96
2017-09-01T11:21:18.405Z,95133.95
2017-09-01T11:23:51.503Z,95130.31
2017-09-01T11:26:19.081Z,95124.14
2017-09-01T11:28:46.619Z,95123.13
2017-09-01T11:31:15.007Z,95126.40
2017-09-01T11:33:42.755Z,95120.18
2017-09-01T11:36:10.514Z,95117.41
2017-09-01T11:38:38.241Z,95123.37
2017-09-01T11:41:05.836Z,95124.48
2017-09-01T11:43:33.411Z,95118.92
2017-09-01T11:46:00.969Z,95113.80
2017-09-01T11:48:28.500Z,95113.47
2017-09-01T11:50:56.021Z,95112.91
2017-09-01T11:53:24.359Z,95106.23
2017-09-01T11:55:51.888Z,95106.71
2017-09-01T11:58:19.410Z,95106.36
2017-09-01T12:00:47.317Z,95104.03
2017-09-01T12:03:14.931Z,95102.44
2017-09-01T12:05:44.223Z,95091.76
2017-09-01T12:08:11.793Z,95104.47
2017-09-01T12:10:39.314Z,95094.69
2017-09-01T12:13:06.846Z,95089.44
2017-09-01T12:15:34.437Z,95089.52
2017-09-01T12:18:01.951Z,95087.03
2017-09-01T12:20:29.493Z,95091.05
2017-09-01T12:22:57.068Z,95087.59
2017-09-01T12:25:25.851Z,95084.31
2017-09-01T12:27:53.586Z,95072.38
2017-09-01T12:30:21.185Z,95080.56
2017-09-01T12:32:48.708Z,95079.74
2017-09-01T12:35:16.251Z,95078.69
2017-09-01T12:37:44.645Z,95078.84
2017-09-01T12:40:12.173Z,95078.01
2017-09-01T12:42:39.703Z,95077.27
2017-09-01T12:45:07.257Z,95079.17
2017-09-01T12:47:34.803Z,95078.36
2017-09-01T12:50:02.473Z,95078.40
2017-09-01T12:52:35.853Z,95071.47
2017-09-01T12:55:03.468Z,95071.57
2017-09-01T12:57:30.992Z,95069.85
2017-09-01T12:59:58.541Z,95063.70
2017-09-01T13:02:26.119Z,95055.14
2017-09-01T13:04:54.143Z,95061.98
2017-09-01T13:07:21.662Z,95058.16
2017-09-01T13:09:50.155Z,95058.70
2017-09-01T13:12:18.274Z,95055.29
2017-09-01T13:14:45.793Z,95049.50
2017-09-01T13:17:13.324Z,95053.43
2017-09-01T13:19:40.853Z,95050.95
2017-09-01T13:22:08.374Z,95042.34
2017-09-01T13:24:35.932Z,95033.77
2017-09-01T13:27:03.460Z,95032.36
2017-09-01T13:29:32.026Z,95031.87
2017-09-01T13:31:59.646Z,95031.80
2017-09-01T13:34:27.160Z,95032.55
2017-09-01T13:36:55.696Z,95033.28
2017-09-01T13:39:23.290Z,95027.37
2017-09-01T13:41:50.811Z,95024.27
2017-09-01T13:44:18.338Z,95019.70
2017-09-01T13:46:45.933Z,95021.63
2017-09-01T13:49:13.457Z,95018.54
2017-09-01T13:51:41.528Z,95020.58
2017-09-01T13:54:09.081Z,95017.94
2017-09-01T13:56:36.745Z,95016.74
2017-09-01T13:59:04.297Z,95008.18
2017-09-01T14:01:31.901Z,95016.08
2017-09-01T14:03:59.509Z,95013.36
2017-09-01T14:06:27.355Z,95011.13
2017-09-01T14:08:55.032Z,95008.23
2017-09-01T14:11:22.592Z,95003.81
2017-09-01T14:13:50.168Z,95003.91
2017-09-01T14:16:17.765Z,95009.61
2017-09-01T14:18:45.326Z,95004.19
2017-09-01T14:21:12.849Z,94999.72
2017-09-01T14:23:42.420Z,94994.31
2017-09-01T14:26:10.196Z,94999.33
2017-09-01T14:28:38.436Z,94998.04
2017-09-01T14:31:06.053Z,95003.91
2017-09-01T14:33:33.611Z,95001.55
2017-09-01T14:36:01.176Z,95000.45
2017-09-01T14:38:28.734Z,94998.23
2017-09-01T14:40:56.334Z,94997.48
2017-09-01T14:43:23.860Z,94989.91
2017-09-01T14:45:51.547Z,94995.75
2017-09-01T14:48:19.134Z,94993.02
2017-09-01T14:50:46.707Z,94995.68
2017-09-01T14:53:14.297Z,94995.45
2017-09-01T14:55:41.990Z,94990.41
2017-09-01T14:58:09.681Z,94990.31
2017-09-01T15:00:37.245Z,94996.11
2017-09-01T15:03:07.769Z,94985.12
2017-09-01T15:05:35.412Z,94985.10
2017-09-01T15:08:03.068Z,94987.44
2017-09-01T15:10:31.516Z,94987.55
2017-09-01T15:12:59.289Z,94985.94
2017-09-01T15:15:26.881Z,94982.17
2017-09-01T15:17:54.492Z,94985.70
2017-09-01T15:20:22.245Z,94966.98
2017-09-01T15:22:49.893Z,94984.41
2017-09-01T15:25:17.500Z,94979.77
2017-09-01T15:27:45.304Z,94990.16
2017-09-01T15:30:12.911Z,94978.53
2017-09-01T15:32:40.531Z,94983.40
2017-09-01T15:35:08.475Z,94978.73
2017-09-01T15:37:36.059Z,94983.41
2017-09-01T15:40:03.844Z,94981.72
2017-09-01T15:42:31.620Z,94983.83
2017-09-01T15:44:59.218Z,94987.06
2017-09-01T15:47:26.836Z,94983.38
2017-09-01T15:49:54.675Z,94989.67
2017-09-01T15:52:22.329Z,94986.28
2017-09-01T15:54:49.879Z,94983.50
2017-09-01T15:57:17.455Z,94979.80
2017-09-01T15:59:45.043Z,94988.05
2017-09-01T16:02:12.621Z,94990.45
2017-09-01T16:04:40.173Z,94986.04
2017-09-01T16:07:07.836Z,94996.28
2017-09-01T16:09:35.642Z,95000.09
2017-09-01T16:12:03.262Z,94992.77
2017-09-01T16:14:30.870Z,94990.22
2017-09-01T16:16:59.151Z,94994.80
2017-09-01T16:19:26.841Z,94995.83
2017-09-01T16:21:54.385Z,94993.22
2017-09-01T16:24:21.986Z,94999.05
2017-09-01T16:26:49.574Z,95005.49
2017-09-01T16:29:17.122Z,95004.27
2017-09-01T16:31:44.887Z,95006.44
2017-09-01T16:34:12.569Z,95005.76
2017-09-01T16:36:40.643Z,95003.19
2017-09-01T16:39:08.481Z,95016.74
2017-09-01T16:41:36.112Z,95016.53
2017-09-01T16:44:03.687Z,95018.60
2017-09-01T16:46:31.256Z,95021.31
2017-09-01T16:48:58.823Z,95013.41
2017-09-01T16:51:26.354Z,95018.69
2017-09-01T16:53:53.992Z,95026.52
2017-09-01T16:56:22.420Z,94986.16
2017-09-01T16:58:50.302Z,95020.88
2017-09-01T17:01:17.858Z,95016.06
2017-09-01T17:03:45.443Z,95020.23
2017-09-01T17:06:13.006Z,95021.63
2017-09-01T17:08:40.589Z,95027.47
2017-09-01T17:11:08.173Z,95032.55
2017-09-01T17:13:40.264Z,95032.23
2017-09-01T17:16:11.243Z,95038.09
2017-09-01T17:18:39.495Z,95041.25
2017-09-01T17:21:07.493Z,95040.21
2017-09-01T17:23:35.142Z,95043.59
2017-09-01T17:26:02.904Z,95047.70
2017-09-01T17:28:32.011Z,95057.41
2017-09-01T17:30:59.647Z,95055.63
2017-09-01T17:33:27.197Z,95067.62
2017-09-01T17:35:54.757Z,95073.06
2017-09-01T17:38:22.321Z,95071.64
2017-09-01T17:40:49.884Z,95069.59
2017-09-01T17:43:17.476Z,95080.11
2017-09-01T17:45:45.062Z,95077.09
2017-09-01T17:48:12.613Z,95074.55
2017-09-01T17:50:40.170Z,95081.59
2017-09-01T17:53:07.807Z,95087.44
2017-09-01T17:55:35.467Z,95085.23
2017-09-01T17:58:03.042Z,95088.44
2017-09-01T18:00:30.619Z,95088.39
2017-09-01T18:02:58.217Z,95094.68
2017-09-01T18:05:25.761Z,95092.03
2017-09-01T18:07:53.571Z,95098.83
2017-09-01T18:10:21.142Z,95096.06
2017-09-01T18:12:48.945Z,95095.99
2017-09-01T18:15:16.494Z,95091.55
2017-09-01T18:17:44.030Z,95099.58
2017-09-01T18:20:11.608Z,95105.84
2017-09-01T18:22:39.196Z,95102.36
2017-09-01T18:25:06.749Z,95112.74
2017-09-01T18:27:34.319Z,95113.14
2017-09-01T18:30:01.909Z,95124.59
2017-09-01T18:32:29.501Z,95117.33
2017-09-01T18:34:57.114Z,95120.23
2017-09-01T18:37:24.643Z,95119.53
2017-09-01T18:39:52.260Z,95123.72
2017-09-01T18:42:20.054Z,95115.27
2017-09-01T18:44:47.615Z,95116.60
2017-09-01T18:47:15.297Z,95124.91
2017-09-01T18:49:44.447Z,95127.73
2017-09-01T18:52:12.318Z,95123.27
2017-09-01T18:54:39.942Z,95130.64
2017-09-01T18:57:07.555Z,95130.53
2017-09-01T18:59:35.164Z,95135.45
2017-09-01T19:02:02.895Z,95137.31
2017-09-01T19:04:31.025Z,95129.06
2017-09-01T19:06:58.629Z,95126.57
2017-09-01T19:09:26.282Z,95119.47
2017-09-01T19:11:54.546Z,95117.91
2017-09-01T19:14:22.952Z,95122.23
2017-09-01T19:16:50.622Z,95125.35
2017-09-01T19:19:19.857Z,95132.34
2017-09-01T19:21:49.965Z,95126.56
2017-09-01T19:24:23.148Z,95135.44
2017-09-01T19:26:53.849Z,95132.47
2017-09-01T19:29:22.282Z,95135.59
2017-09-01T19:31:49.864Z,95140.13
2017-09-01T19:34:17.410Z,95146.64
2017-09-01T19:36:46.105Z,95142.64
2017-09-01T19:39:13.688Z,95147.31
2017-09-01T19:41:42.542Z,95142.36
2017-09-01T19:44:10.743Z,95148.08
2017-09-01T19:46:38.338Z,95149.73
2017-09-01T19:49:05.881Z,95143.94
2017-09-01T19:51:33.481Z,95155.13
2017-09-01T19:54:01.215Z,95151.54
2017-09-01T19:56:28.738Z,95149.42
2017-09-01T19:58:56.522Z,95152.41
2017-09-01T20:01:24.107Z,95157.44
2017-09-01T20:03:51.629Z,95155.13
2017-09-01T20:06:19.682Z,95158.27
2017-09-01T20:08:47.262Z,95157.02
2017-09-01T20:11:14.800Z,95155.80
2017-09-01T20:13:42.389Z,95160.31
2017-09-01T20:16:09.979Z,95162.39
2017-09-01T20:18:37.546Z,95160.22
2017-09-01T20:21:05.080Z,95166.23
2017-09-01T20:23:32.670Z,95162.86
2017-09-01T20:26:00.259Z,95167.59
2017-09-01T20:28:28.044Z,95154.20
2017-09-01T20:30:55.612Z,95156.64
2017-09-01T20:33:23.357Z,95163.23
2017-09-01T20:35:50.897Z,95162.75
2017-09-01T20:38:18.476Z,95164.23
2017-09-01T20:40:46.022Z,95168.52
2017-09-01T20:43:13.577Z,95167.78
2017-09-01T20:45:41.186Z,95172.69
2017-09-01T20:48:08.697Z,95171.06
2017-09-01T20:50:36.266Z,95162.24
2017-09-01T20:53:04.050Z,95164.95
2017-09-01T20:55:31.587Z,95166.36
2017-09-01T20:58:00.223Z,95164.73
2017-09-01T21:00:28.018Z,95171.81
2017-09-01T21:02:55.526Z,95172.66
2017-09-01T21:05:23.962Z,95166.34
2017-09-01T21:07:51.522Z,95166.59
2017-09-01T21:10:26.285Z,95174.64
2017-09-01T21:13:04.729Z,95179.91
2017-09-01T21:15:33.625Z,95184.36
2017-09-01T21:18:01.495Z,95183.45
2017-09-01T21:20:30.023Z,95178.81
2017-09-01T21:22:58.891Z,95181.80
2017-09-01T21:25:30.125Z,95184.28
2017-09-01T21:28:00.750Z,95183.88
2017-09-01T21:30:32.630Z,95185.90
2017-09-01T21:33:02.094Z,95179.05
2017-09-01T21:35:30.534Z,95177.59
2017-09-01T21:38:03.335Z,95180.42
2017-09-01T21:40:39.409Z,95177.44
2017-09-01T21:43:11.361Z,95179.45
2017-09-01T21:45:39.760Z,95178.02
2017-09-01T21:48:07.360Z,95177.14
2017-09-01T21:50:35.016Z,95178.77
2017-09-01T21:53:02.597Z,95175.41
2017-09-01T21:55:32.644Z,95176.86
2017-09-01T21:58:00.486Z,95169.73
2017-09-01T22:00:49.490Z,95172.86
2017-09-01T22:03:17.074Z,95176.09
2017-09-01T22:05:44.661Z,95172.80
2017-09-01T22:08:12.180Z,95172.95
2017-09-01T22:10:39.713Z,95176.41
2017-09-01T22:13:07.535Z,95177.28
2017-09-01T22:15:35.080Z,95176.69
2017-09-01T22:18:02.663Z,95176.09
2017-09-01T22:20:30.277Z,95180.35
2017-09-01T22:22:57.929Z,95169.33
2017-09-01T22:25:25.486Z,95172.91
2017-09-01T22:27:53.076Z,95167.55
2017-09-01T22:30:20.779Z,95176.65
2017-09-01T22:32:48.371Z,95170.19
2017-09-01T22:35:15.996Z,95167.91
2017-09-01T22:37:43.560Z,95167.16
2017-09-01T22:40:11.559Z,95166.84
2017-09-01T22:42:39.088Z,95171.02
2017-09-01T22:45:06.690Z,95174.80
2017-09-01T22:47:34.352Z,95178.38
2017-09-01T22:50:01.918Z,95172.94
2017-09-01T22:52:29.580Z,95173.56
2017-09-01T22:54:57.344Z,95173.02
2017-09-01T22:57:24.892Z,95176.49
2017-09-01T22:59:52.517Z,95175.97
2017-09-01T23:02:20.135Z,95173.41
2017-09-01T23:04:47.702Z,95173.77
2017-09-01T23:07:15.232Z,95172.63
2017-09-01T23:09:42.803Z,95176.25
2017-09-01T23:12:10.364Z,95168.16
2017-09-01T23:14:37.901Z,95176.20
2017-09-01T23:17:05.472Z,95175.26
2017-09-01T23:19:33.072Z,95176.31
2017-09-01T23:22:00.998Z,95175.69
2017-09-01T23:24:28.622Z,95174.03
2017-09-01T23:26:56.420Z,95165.57
2017-09-01T23:29:24.316Z,95171.42
2017-09-01T23:31:51.912Z,95171.25
2017-09-01T23:34:19.740Z,95172.06
2017-09-01T23:36:47.365Z,95176.42
2017-09-01T23:39:14.943Z,95174.58
2017-09-01T23:41:42.821Z,95178.00
2017-09-01T23:44:10.376Z,95176.30
2017-09-01T23:46:38.028Z,95170.36
2017-09-01T23:49:05.740Z,95170.48
2017-09-01T23:51:33.303Z,95170.30
2017-09-01T23:54:00.875Z,95167.81
2017-09-01T23:56:28.671Z,95171.59
2017-09-01T23:58:56.226Z,95177.69
